Time;durP1;ratioP1;P1;durP2;ratioP2;P2;SDS_P1;SDS_P2;PMS_P1;PMS_P2;Temp;Humidity;BMP_temperature;BMP_pressure;BME280_temperature;BME280_humidity;BME280_pressure;Samples;Min_cycle;Max_cycle;Signal;HPM_P1;HPM_P2
2022/03/18 00:00:42;;;;;;;14.67;11.70;;;6.20;99.90;;;;;;5015967;28;20188;-93
2022/03/18 00:03:11;;;;;;;21.53;13.10;;;4.30;99.90;;;;;;5003672;28;20511;-92
2022/03/18 00:05:37;;;;;;;14.60;11.80;;;3.90;99.90;;;;;;5004163;28;20192;-93
2022/03/18 00:08:04;;;;;;;14.35;11.95;;;5.00;99.90;;;;;;5000621;28;20244;-93
2022/03/18 00:10:31;;;;;;;14.93;12.10;;;5.70;99.90;;;;;;5009087;28;20204;-93
2022/03/18 00:12:58;;;;;;;13.57;12.18;;;5.20;99.90;;;;;;5005099;28;20191;-92
2022/03/18 00:15:27;;;;;;;16.55;12.80;;;6.00;99.90;;;;;;5005646;28;20204;-93
2022/03/18 00:17:54;;;;;;;19.83;14.25;;;6.50;99.90;;;;;;5006863;28;20189;-92
2022/03/18 00:20:21;;;;;;;21.98;14.57;;;4.40;99.90;;;;;;5008677;28;20184;-92
2022/03/18 00:22:48;;;;;;;17.75;13.18;;;5.00;99.90;;;;;;5005832;28;20196;-93
2022/03/18 00:25:15;;;;;;;15.52;13.80;;;4.30;99.90;;;;;;5007761;28;20234;-93
2022/03/18 00:27:42;;;;;;;26.83;13.88;;;4.30;99.90;;;;;;5023541;28;20210;-92
2022/03/18 00:30:09;;;;;;;24.65;14.93;;;4.40;99.90;;;;;;5009295;28;20219;-92
2022/03/18 00:32:37;;;;;;;20.80;14.50;;;4.50;99.90;;;;;;5003728;28;20235;-93
2022/03/18 00:35:03;;;;;;;17.75;14.02;;;3.40;99.90;;;;;;5016039;28;20187;-93
2022/03/18 00:37:29;;;;;;;21.53;14.20;;;4.30;99.90;;;;;;5001459;28;20184;-92
2022/03/18 00:39:55;;;;;;;19.47;15.30;;;;;;;;;;5015903;28;20412;-93
2022/03/18 00:42:21;;;;;;;17.45;13.82;;;4.40;99.90;;;;;;5018737;28;20188;-93
2022/03/18 00:44:48;;;;;;;19.87;13.60;;;;;;;;;;5029538;28;20692;-93
2022/03/18 00:52:57;;;;;;;22.02;13.27;;;5.20;99.90;;;;;;5027370;28;20219;-94
2022/03/18 00:55:23;;;;;;;18.58;13.55;;;6.00;99.90;;;;;;5026860;28;20177;-94
2022/03/18 00:57:49;;;;;;;21.93;12.90;;;4.30;99.90;;;;;;4991843;28;20240;-94
2022/03/18 01:00:15;;;;;;;18.00;14.13;;;;;;;;;;5025875;28;20222;-94
2022/03/18 01:02:41;;;;;;;14.68;13.15;;;2.30;99.90;;;;;;5016156;28;20428;-92
2022/03/18 01:05:13;;;;;;;14.20;12.70;;;4.20;99.90;;;;;;5018906;28;20211;-92
2022/03/18 01:07:38;;;;;;;16.13;13.32;;;4.00;99.90;;;;;;5001007;28;20227;-93
2022/03/18 01:10:05;;;;;;;18.07;14.03;;;3.90;99.90;;;;;;5013361;28;20185;-93
2022/03/18 01:12:31;;;;;;;19.60;14.13;;;2.20;99.90;;;;;;5013298;28;20197;-93
2022/03/18 01:14:57;;;;;;;19.70;14.20;;;;;;;;;;5030460;28;20215;-93
2022/03/18 01:17:23;;;;;;;14.57;13.02;;;3.50;99.90;;;;;;5029224;28;20588;-93
2022/03/18 01:19:48;;;;;;;14.07;12.60;;;4.30;99.90;;;;;;5008562;28;20193;-93
2022/03/18 01:22:17;;;;;;;17.00;12.97;;;;;;;;;;5013248;28;20192;-93
2022/03/18 01:24:43;;;;;;;15.23;11.45;;;4.00;99.90;;;;;;5011016;28;20507;-93
2022/03/18 01:27:09;;;;;;;15.60;12.43;;;;;;;;;;5007764;28;20188;-93
2022/03/18 01:29:35;;;;;;;19.63;11.50;;;3.70;99.90;;;;;;5023464;28;20189;-93
2022/03/18 01:32:01;;;;;;;20.07;13.40;;;;;;;;;;5004790;28;20234;-93
2022/03/18 01:34:27;;;;;;;17.80;13.07;;;4.50;99.90;;;;;;5021475;28;20975;-92
2022/03/18 01:36:53;;;;;;;17.10;14.20;;;;;;;;;;5003601;28;20173;-94
2022/03/18 01:39:22;;;;;;;23.92;14.65;;;;;;;;;;5005661;28;20444;-93
2022/03/18 01:41:49;;;;;;;15.52;13.65;;;3.50;99.90;;;;;;5009963;28;20184;-93
2022/03/18 01:44:14;;;;;;;19.83;14.23;;;3.50;99.90;;;;;;5003396;28;20196;-92
2022/03/18 01:46:40;;;;;;;21.20;15.00;;;;;;;;;;5012656;28;20181;-92
2022/03/18 01:49:07;;;;;;;27.45;15.35;;;3.60;99.90;;;;;;5029093;28;20485;-93
2022/03/18 01:51:34;;;;;;;20.42;12.90;;;3.30;99.90;;;;;;5011394;28;20232;-93
2022/03/18 01:56:49;;;;;;;21.67;14.77;;;3.60;99.90;;;;;;5008953;28;20224;-93
2022/03/18 01:59:15;;;;;;;32.40;16.13;;;3.60;99.90;;;;;;5012331;28;20277;-94
2022/03/18 02:01:44;;;;;;;22.42;15.55;;;3.50;99.90;;;;;;5008660;28;20189;-93
2022/03/18 02:04:10;;;;;;;19.55;15.45;;;3.50;99.90;;;;;;5024316;28;20192;-92
2022/03/18 02:06:37;;;;;;;16.85;14.00;;;4.70;99.90;;;;;;5008046;28;20245;-93
2022/03/18 02:09:03;;;;;;;21.65;15.13;;;3.50;99.90;;;;;;5023211;28;20469;-92
2022/03/18 02:11:29;;;;;;;19.50;15.10;;;;;;;;;;4998685;28;20682;-93
2022/03/18 02:13:58;;;;;;;23.35;16.27;;;3.50;99.90;;;;;;5007828;28;20402;-93
2022/03/18 02:16:24;;;;;;;19.48;15.63;;;3.20;99.90;;;;;;5009137;28;20184;-92
2022/03/18 02:18:52;;;;;;;23.10;16.10;;;1.10;99.90;;;;;;5025658;28;20192;-93
2022/03/18 02:21:18;;;;;;;25.70;14.85;;;3.60;99.90;;;;;;4998622;28;20188;-93
2022/03/18 02:23:44;;;;;;;20.55;16.30;;;3.60;99.90;;;;;;5022788;28;20478;-93
2022/03/18 02:26:14;;;;;;;19.63;16.87;;;3.70;99.90;;;;;;5005623;28;20185;-93
2022/03/18 02:28:40;;;;;;;17.33;14.45;;;3.70;99.90;;;;;;5006203;28;20248;-93
2022/03/18 02:31:06;;;;;;;15.33;13.57;;;;;;;;;;5024857;28;20197;-93
2022/03/18 02:33:32;;;;;;;24.85;14.90;;;3.60;99.90;;;;;;5003621;28;20414;-94
2022/03/18 02:35:58;;;;;;;24.07;17.27;;;;;;;;;;5017729;28;20677;-92
2022/03/18 02:38:23;;;;;;;27.70;16.80;;;3.50;99.90;;;;;;5008469;28;20207;-93
2022/03/18 02:40:49;;;;;;;31.20;17.50;;;;;;;;;;5019269;28;20434;-93
2022/03/18 02:43:15;;;;;;;17.77;14.37;;;3.60;99.90;;;;;;5000808;28;20200;-93
2022/03/18 02:45:41;;;;;;;24.60;15.10;;;;;;;;;;5005995;28;20494;-93
2022/03/18 02:48:07;;;;;;;14.48;13.02;;;3.70;99.90;;;;;;5002406;28;20226;-93
2022/03/18 02:50:33;;;;;;;15.23;13.70;;;;;;;;;;5006460;28;20196;-93
2022/03/18 02:52:59;;;;;;;17.70;13.30;;;3.60;99.90;;;;;;5020862;28;20193;-94
2022/03/18 02:55:28;;;;;;;15.57;11.07;;;3.70;99.90;;;;;;5001632;28;20175;-94
2022/03/18 02:57:53;;;;;;;18.48;11.80;;;3.80;99.90;;;;;;5002159;28;20212;-93
2022/03/18 03:00:25;;;;;;;15.83;11.37;;;;;;;;;;5005833;28;20187;-92
2022/03/18 03:02:51;;;;;;;13.30;11.18;;;;;;;;;;4991890;28;20193;-93
2022/03/18 03:08:01;;;;;;;15.45;11.75;;;;;;;;;;5012441;28;20240;-94
2022/03/18 03:10:33;;;;;;;18.95;13.52;;;3.70;99.90;;;;;;5017503;28;20177;-93
2022/03/18 03:13:03;;;;;;;23.55;14.32;;;3.70;99.90;;;;;;4999152;28;20185;-93
2022/03/18 03:15:29;;;;;;;15.65;12.70;;;1.80;99.90;;;;;;5018048;28;20655;-93
2022/03/18 03:17:55;;;;;;;17.13;13.90;;;;;;;;;;4999443;28;20204;-93
2022/03/18 03:20:23;;;;;;;21.35;13.98;;;3.40;99.90;;;;;;5005674;28;20397;-93
2022/03/18 03:22:50;;;;;;;19.63;14.75;;;3.30;99.90;;;;;;5002365;28;20191;-93
2022/03/18 03:25:16;;;;;;;18.10;14.65;;;3.30;99.90;;;;;;5005033;28;20188;-93
2022/03/18 03:27:42;;;;;;;27.08;16.00;;;3.20;99.90;;;;;;5003891;28;20217;-93
2022/03/18 03:30:10;;;;;;;16.30;14.67;;;3.10;99.90;;;;;;5006423;28;20256;-94
2022/03/18 03:32:37;;;;;;;22.80;15.23;;;3.10;99.90;;;;;;4992729;28;20438;-93
2022/03/18 03:35:05;;;;;;;27.63;15.43;;;3.00;99.90;;;;;;4994712;28;20215;-93
2022/03/18 03:37:31;;;;;;;21.23;15.57;;;3.00;99.90;;;;;;5002596;28;20203;-93
2022/03/18 03:39:57;;;;;;;18.00;14.63;;;2.90;99.90;;;;;;5007064;28;20172;-94
2022/03/18 03:42:23;;;;;;;16.63;14.05;;;2.90;99.90;;;;;;5005366;28;20456;-93
2022/03/18 03:44:50;;;;;;;17.52;14.40;;;3.40;99.90;;;;;;4987705;28;20188;-92
2022/03/18 03:47:16;;;;;;;28.95;16.10;;;2.80;99.90;;;;;;5022753;28;20698;-93
2022/03/18 03:49:44;;;;;;;25.20;13.90;;;2.90;99.90;;;;;;5006271;28;20264;-93
2022/03/18 03:52:09;;;;;;;18.40;15.05;;;2.70;99.90;;;;;;5024864;28;20195;-93
2022/03/18 03:54:37;;;;;;;20.97;14.90;;;2.80;99.90;;;;;;4989839;28;20185;-93
2022/03/18 03:57:12;;;;;;;20.17;15.50;;;2.80;99.90;;;;;;5024629;28;20190;-92
2022/03/18 03:59:38;;;;;;;25.83;15.43;;;2.70;99.90;;;;;;5025181;28;20219;-93
2022/03/18 04:02:04;;;;;;;25.80;14.13;;;2.60;99.90;;;;;;5012994;28;20192;-93
2022/03/18 04:04:31;;;;;;;15.43;13.73;;;2.60;99.90;;;;;;5026723;28;20184;-93
2022/03/18 04:06:58;;;;;;;19.10;13.18;;;2.70;99.90;;;;;;5009966;28;20207;-93
2022/03/18 04:09:24;;;;;;;20.88;14.88;;;;;;;;;;5006631;28;20185;-94
2022/03/18 04:11:50;;;;;;;22.85;14.80;;;2.50;99.90;;;;;;5023464;28;20539;-93
2022/03/18 04:14:16;;;;;;;21.47;15.27;;;;;;;;;;5014682;28;20188;-91
2022/03/18 04:16:44;;;;;;;16.53;13.10;;;2.60;99.90;;;;;;5017252;28;20409;-93
2022/03/18 04:19:10;;;;;;;17.35;13.57;;;;;;;;;;5014186;28;20417;-91
2022/03/18 04:21:36;;;;;;;20.57;15.00;;;;;;;;;;5012171;28;20204;-92
2022/03/18 04:24:05;;;;;;;16.40;14.68;;;2.40;99.90;;;;;;5017882;28;20411;-92
2022/03/18 04:26:33;;;;;;;15.60;14.00;;;4.20;99.90;;;;;;5011156;28;20188;-93
2022/03/18 04:28:58;;;;;;;18.73;15.65;;;2.20;99.90;;;;;;5009651;28;20226;-93
2022/03/18 04:31:24;;;;;;;16.67;12.77;;;;;;;;;;5003847;28;20614;-93
2022/03/18 04:33:50;;;;;;;15.60;12.70;;;2.40;99.90;;;;;;5004226;28;20435;-92
2022/03/18 04:36:16;;;;;;;19.43;14.10;;;;;;;;;;5001057;28;20185;-93
2022/03/18 04:38:42;;;;;;;17.75;15.63;;;2.40;99.90;;;;;;5001966;28;20602;-92
2022/03/18 04:41:08;;;;;;;21.50;15.53;;;;;;;;;;5003319;28;20223;-90
2022/03/18 04:43:34;;;;;;;26.45;16.40;;;2.40;99.90;;;;;;5018238;28;20208;-92
2022/03/18 04:46:00;;;;;;;18.07;15.17;;;;;;;;;;4999982;28;20185;-93
2022/03/18 04:48:26;;;;;;;18.40;13.47;;;2.40;99.90;;;;;;5016209;28;20467;-92
2022/03/18 04:50:52;;;;;;;15.73;13.87;;;;;;;;;;5002381;28;20948;-93
2022/03/18 04:53:18;;;;;;;17.95;13.95;;;2.30;99.90;;;;;;5000076;28;20490;-92
2022/03/18 04:55:44;;;;;;;22.27;14.57;;;2.20;99.90;;;;;;5004052;28;20247;-93
2022/03/18 04:58:10;;;;;;;22.17;13.87;;;;;;;;;;5017995;28;20209;-93
2022/03/18 05:00:36;;;;;;;21.33;15.75;;;;;;;;;;5000651;28;20397;-92
2022/03/18 05:03:03;;;;;;;17.45;13.88;;;2.30;99.90;;;;;;5002312;28;20208;-93
2022/03/18 05:05:31;;;;;;;19.42;12.95;;;2.50;99.90;;;;;;5000293;28;20262;-93
2022/03/18 05:07:57;;;;;;;23.48;14.70;;;;;;;;;;4998082;28;20212;-93
2022/03/18 05:10:24;;;;;;;18.17;15.23;;;2.20;99.90;;;;;;4987525;28;20572;-93
2022/03/18 05:12:50;;;;;;;15.32;13.30;;;2.30;99.90;;;;;;5007771;28;20410;-92
2022/03/18 05:15:16;;;;;;;16.95;13.20;;;2.30;99.90;;;;;;5009525;28;20172;-93
2022/03/18 05:17:50;;;;;;;17.63;14.05;;;2.20;99.90;;;;;;5001454;28;20286;-93
2022/03/18 05:20:15;;;;;;;15.23;13.23;;;2.10;99.90;;;;;;4989504;28;20171;-89
2022/03/18 05:22:41;;;;;;;17.80;12.40;;;2.10;99.90;;;;;;5005733;28;20667;-94
2022/03/18 05:25:07;;;;;;;18.80;12.40;;;2.10;99.90;;;;;;5008633;28;20173;-93
2022/03/18 05:27:40;;;;;;;15.95;13.60;;;2.20;99.90;;;;;;5006565;28;20268;-90
2022/03/18 05:30:06;;;;;;;16.20;13.60;;;3.30;99.90;;;;;;5008547;28;20176;-92
2022/03/18 05:32:33;;;;;;;17.10;12.10;;;2.10;99.90;;;;;;4989712;28;20245;-85
2022/03/18 05:34:59;;;;;;;18.27;14.45;;;1.90;99.90;;;;;;5021535;28;20176;-92
2022/03/18 05:37:25;;;;;;;27.03;16.23;;;;;;;;;;5025756;28;20177;-91
2022/03/18 05:39:51;;;;;;;21.17;14.77;;;2.00;99.90;;;;;;4667487;28;10000546;-89
2022/03/18 05:42:17;;;;;;;19.30;14.73;;;;;;;;;;5012449;28;20185;-93
2022/03/18 05:44:46;;;;;;;21.97;15.47;;;;;;;;;;4997876;28;20247;-94
2022/03/18 05:47:18;;;;;;;23.95;16.92;;;1.90;99.90;;;;;;5001455;28;20414;-92
2022/03/18 05:49:44;;;;;;;17.48;15.40;;;2.10;99.90;;;;;;5007612;28;20207;-93
2022/03/18 05:52:16;;;;;;;22.02;15.05;;;2.60;99.90;;;;;;5005231;28;20291;-92
2022/03/18 05:54:44;;;;;;;18.67;14.13;;;2.30;99.90;;;;;;4986561;28;20224;-90
2022/03/18 05:57:12;;;;;;;20.10;11.63;;;;;;;;;;5020151;28;20567;-91
2022/03/18 05:59:42;;;;;;;20.00;13.05;;;2.10;99.90;;;;;;5008272;23;20229;-92
2022/03/18 06:02:10;;;;;;;17.40;12.88;;;4.50;99.90;;;;;;4963464;28;20232;-91
2022/03/18 06:04:37;;;;;;;20.30;13.90;;;2.20;99.90;;;;;;4971218;28;20192;-90
2022/03/18 06:07:05;;;;;;;21.55;15.30;;;3.40;99.90;;;;;;4977260;28;20201;-90
2022/03/18 06:12:17;;;;;;;19.42;13.75;;;4.70;99.90;;;;;;4984236;28;20199;-91
2022/03/18 06:14:42;;;;;;;20.75;15.40;;;2.40;99.90;;;;;;4972619;28;20182;-89
2022/03/18 06:17:08;;;;;;;19.50;14.83;;;2.00;99.90;;;;;;4957830;28;20198;-89
2022/03/18 06:19:34;;;;;;;24.60;14.23;;;1.90;99.90;;;;;;4988061;28;20441;-90
2022/03/18 06:22:01;;;;;;;22.00;14.18;;;2.50;99.90;;;;;;4974288;28;20197;-90
2022/03/18 06:24:28;;;;;;;19.27;12.13;;;2.30;99.90;;;;;;4999173;28;20253;-90
2022/03/18 06:26:55;;;;;;;17.23;12.93;;;2.20;99.90;;;;;;4990818;28;20204;-90
2022/03/18 06:29:21;;;;;;;21.05;13.38;;;2.30;99.90;;;;;;4983951;28;20201;-89
2022/03/18 06:31:50;;;;;;;15.65;13.63;;;2.20;99.90;;;;;;5000044;28;20173;-91
2022/03/18 06:34:17;;;;;;;13.55;12.10;;;4.30;99.90;;;;;;4973711;28;20197;-92
2022/03/18 06:36:43;;;;;;;13.85;10.82;;;4.60;99.90;;;;;;4998818;28;20201;-90
2022/03/18 06:39:09;;;;;;;9.50;8.60;;;5.10;99.90;;;;;;4970507;28;20227;-91
2022/03/18 06:42:15;;;;;;;9.48;8.73;;;4.90;99.90;;;;;;4969047;28;20446;-89
2022/03/18 06:45:41;;;;;;;9.15;8.30;;;6.80;99.90;;;;;;4995294;28;20224;-91
2022/03/18 06:49:15;;;;;;;8.70;7.95;;;5.20;99.90;;;;;;4989093;28;20279;-90
2022/03/18 06:52:40;;;;;;;9.07;8.00;;;6.10;99.90;;;;;;4964074;28;20213;-89
2022/03/18 06:56:09;;;;;;;10.20;7.50;;;7.00;99.90;;;;;;4988574;28;20295;-91
2022/03/18 06:59:40;;;;;;;9.48;8.13;;;7.70;99.90;;;;;;4986163;28;20228;-90
2022/03/18 07:02:57;;;;;;;8.20;7.60;;;9.80;99.90;;;;;;4989049;28;20201;-90
2022/03/18 07:06:24;;;;;;;8.93;7.20;;;9.40;99.90;;;;;;4990999;28;20219;-90
2022/03/18 07:09:53;;;;;;;7.63;6.93;;;9.90;99.90;;;;;;4989910;28;20484;-91
2022/03/18 07:13:19;;;;;;;7.63;6.80;;;8.90;99.90;;;;;;4990266;28;20420;-90
2022/03/18 07:20:08;;;;;;;8.30;6.70;;;11.80;99.90;;;;;;4996175;28;20572;-90
2022/03/18 07:23:44;;;;;;;8.20;7.70;;;8.80;98.60;;;;;;4977986;28;20429;-90
2022/03/18 07:27:32;;;;;;;;;;;;;;;;;;;;;
2022/03/18 07:30:51;;;;;;;9.60;8.80;;;12.00;98.40;;;;;;4923002;29;20459;-92
2022/03/18 07:34:34;;;;;;;8.77;7.83;;;13.30;96.40;;;;;;4906129;29;20906;-91
2022/03/18 07:38:20;;;;;;;8.63;7.93;;;13.70;87.00;;;;;;4870634;29;20464;-92
2022/03/18 07:45:31;;;;;;;7.10;6.40;;;13.90;59.90;;;;;;4919066;29;20463;-92
2022/03/18 07:48:54;;;;;;;11.13;7.97;;;15.00;57.50;;;;;;4919622;29;20513;-91
2022/03/18 07:52:42;;;;;;;10.87;7.60;;;15.20;57.70;;;;;;4919899;29;20852;-92
2022/03/18 07:55:53;;;;;;;8.73;8.10;;;17.30;58.20;;;;;;4897201;29;20486;-91
2022/03/18 07:59:18;;;;;;;9.60;7.17;;;16.00;55.20;;;;;;4914512;29;20575;-90
2022/03/18 08:03:02;;;;;;;9.97;7.83;;;16.60;50.30;;;;;;4986368;28;20460;-91
2022/03/18 08:06:27;;;;;;;9.83;8.03;;;17.60;50.60;;;;;;4984746;28;20843;-90
2022/03/18 08:09:13;;;;;;;8.90;7.70;;;17.60;47.30;;;;;;4986389;28;20995;-90
2022/03/18 08:11:39;;;;;;;9.63;8.10;;;18.50;47.50;;;;;;4973308;28;20429;-90
2022/03/18 08:14:05;;;;;;;12.77;8.50;;;18.60;44.20;;;;;;4975745;28;20436;-93
2022/03/18 08:16:31;;;;;;;10.07;9.07;;;20.60;44.70;;;;;;4979757;28;20420;-92
2022/03/18 08:18:58;;;;;;;10.50;8.63;;;19.40;42.60;;;;;;4966300;28;20436;-93
2022/03/18 08:21:32;;;;;;;10.37;7.73;;;19.50;42.80;;;;;;5001754;28;20417;-93
2022/03/18 08:23:59;;;;;;;8.50;7.80;;;19.60;42.40;;;;;;4986544;28;20427;-93
2022/03/18 08:26:28;;;;;;;9.93;8.23;;;18.90;42.20;;;;;;4969101;28;20457;-92
2022/03/18 08:28:53;;;;;;;8.37;7.50;;;18.50;43.90;;;;;;4987443;28;20938;-89
2022/03/18 08:31:21;;;;;;;8.97;7.50;;;18.80;43.20;;;;;;4649415;23;10001520;-87
2022/03/18 08:33:47;;;;;;;8.53;7.73;;;19.00;41.50;;;;;;4987578;28;20181;-86
2022/03/18 08:36:16;;;;;;;7.37;6.77;;;19.30;43.10;;;;;;5001090;28;20442;-87
2022/03/18 08:38:42;;;;;;;7.27;6.70;;;19.70;41.00;;;;;;4985265;28;20186;-86
2022/03/18 08:41:07;;;;;;;7.77;7.17;;;19.50;41.20;;;;;;4982830;28;20614;-86
2022/03/18 08:43:33;;;;;;;7.37;6.67;;;19.70;41.30;;;;;;5005544;28;20188;-85
2022/03/18 08:46:00;;;;;;;8.00;7.17;;;18.80;41.10;;;;;;4975637;28;20206;-85
2022/03/18 08:48:32;;;;;;;11.20;6.40;;;18.40;41.40;;;;;;4985554;28;20518;-85
2022/03/18 08:50:58;;;;;;;12.43;6.70;;;17.70;41.00;;;;;;5004168;28;20459;-84
2022/03/18 08:53:24;;;;;;;6.87;6.27;;;18.70;40.30;;;;;;4978956;28;21044;-86
2022/03/18 08:55:50;;;;;;;6.93;6.23;;;19.20;41.00;;;;;;5005232;28;20500;-86
2022/03/18 08:58:22;;;;;;;5.97;5.57;;;19.30;41.10;;;;;;5003686;28;20443;-86
2022/03/18 09:00:48;;;;;;;6.27;5.70;;;22.20;43.40;;;;;;4979506;28;20439;-84
2022/03/18 09:03:17;;;;;;;6.23;5.50;;;19.30;40.00;;;;;;4977895;28;20563;-86
2022/03/18 09:05:43;;;;;;;9.80;5.63;;;20.00;39.40;;;;;;4994549;28;20996;-83
2022/03/18 09:08:24;;;;;;;6.60;6.10;;;19.10;42.20;;;;;;5000888;28;20475;-86
2022/03/18 09:11:11;;;;;;;7.13;5.17;;;20.00;39.40;;;;;;4961072;28;20488;-84
2022/03/18 09:13:40;;;;;;;6.00;5.50;;;18.30;37.50;;;;;;4986112;28;20427;-84
2022/03/18 09:16:06;;;;;;;6.50;5.90;;;19.40;39.90;;;;;;4999787;28;20454;-83
2022/03/18 09:18:32;;;;;;;6.37;4.93;;;19.90;40.70;;;;;;4990816;28;20472;-84
2022/03/18 09:20:58;;;;;;;5.30;4.90;;;20.00;40.20;;;;;;4976342;28;20432;-83
2022/03/18 09:23:26;;;;;;;5.03;4.47;;;20.10;39.20;;;;;;4984603;28;20814;-84
2022/03/18 09:25:56;;;;;;;5.17;4.67;;;20.50;37.70;;;;;;5002581;28;20525;-84
2022/03/18 09:28:26;;;;;;;6.77;4.83;;;21.20;37.90;;;;;;4986931;28;20479;-83
2022/03/18 09:30:52;;;;;;;7.10;5.00;;;22.80;39.30;;;;;;4981357;28;20492;-84
2022/03/18 09:33:24;;;;;;;5.57;4.17;;;21.20;37.70;;;;;;4976354;28;20934;-84
2022/03/18 09:35:50;;;;;;;4.60;4.30;;;20.80;36.40;;;;;;4972892;28;20425;-86
2022/03/18 09:38:26;;;;;;;;;;;;;;;;;;;;;
2022/03/18 09:40:52;;;;;;;3.97;3.73;;;21.10;36.60;;;;;;4976345;28;20512;-84
2022/03/18 09:43:57;;;;;;;4.87;4.57;;;19.60;36.50;;;;;;4976043;28;20999;-85
2022/03/18 09:46:26;;;;;;;8.53;5.00;;;20.00;35.80;;;;;;4976084;28;20233;-84
2022/03/18 09:49:31;;;;;;;4.80;4.50;;;19.50;36.10;;;;;;5077112;23;20486;-87
2022/03/18 09:52:48;;;;;;;6.00;4.70;;;19.10;35.80;;;;;;5012725;28;20426;-87
2022/03/18 09:55:35;;;;;;;7.50;4.73;;;19.70;36.30;;;;;;4997974;28;20459;-85
2022/03/18 10:02:16;;;;;;;4.60;4.30;;;21.40;37.80;;;;;;4978948;28;20445;-87
2022/03/18 10:04:51;;;;;;;5.67;4.70;;;18.10;36.10;;;;;;4992220;28;20471;-85
2022/03/18 10:07:23;;;;;;;6.10;5.50;;;20.40;37.20;;;;;;4961135;28;22310;-84
2022/03/18 10:10:11;;;;;;;5.90;5.40;;;20.90;36.70;;;;;;4969525;28;20448;-85
2022/03/18 10:12:44;;;;;;;4.97;4.40;;;22.30;35.80;;;;;;4963434;28;20435;-83
2022/03/18 10:15:36;;;;;;;5.07;4.67;;;21.50;35.40;;;;;;4974487;28;20445;-84
2022/03/18 10:18:02;;;;;;;4.70;4.40;;;21.80;35.90;;;;;;4642781;28;10000821;-86
2022/03/18 10:20:48;;;;;;;;;;;;;;;;;;;;;
2022/03/18 10:23:19;;;;;;;4.60;4.30;;;21.40;34.60;;;;;;4980744;28;20432;-84
2022/03/18 10:25:52;;;;;;;5.67;3.93;;;20.10;35.30;;;;;;4961302;28;20436;-84
2022/03/18 10:28:44;;;;;;;7.30;6.50;;;20.30;34.90;;;;;;4965597;28;20476;-84
2022/03/18 10:31:19;;;;;;;6.57;5.13;;;19.50;35.00;;;;;;4972648;28;20453;-85
2022/03/18 10:39:22;;;;;;;4.87;4.37;;;20.90;35.70;;;;;;4973617;28;20440;-85
2022/03/18 10:41:48;;;;;;;4.60;4.30;;;21.90;35.80;;;;;;4972594;28;20456;-86
2022/03/18 10:44:17;;;;;;;4.70;4.40;;;21.90;34.30;;;;;;4973921;28;20460;-84
2022/03/18 10:46:43;;;;;;;3.90;3.57;;;21.60;35.50;;;;;;4974110;28;20965;-83
2022/03/18 10:49:10;;;;;;;4.73;3.90;;;22.00;35.60;;;;;;4970856;28;20484;-84
2022/03/18 10:51:39;;;;;;;4.67;3.60;;;22.60;33.50;;;;;;4965053;28;20963;-85
2022/03/18 10:54:11;;;;;;;4.30;4.00;;;21.70;32.40;;;;;;4972084;28;20531;-85
2022/03/18 10:56:58;;;;;;;3.90;3.60;;;21.50;33.30;;;;;;4968572;28;20452;-85
2022/03/18 10:59:29;;;;;;;8.43;3.73;;;22.10;33.40;;;;;;4988946;28;20508;-84
2022/03/18 11:01:58;;;;;;;6.07;3.93;;;21.50;33.00;;;;;;4981914;28;20466;-84
2022/03/18 11:04:26;;;;;;;5.27;4.00;;;21.20;33.80;;;;;;4968699;28;20433;-85
2022/03/18 11:12:33;;;;;;;4.20;4.00;;;21.90;32.60;;;;;;4986679;28;20531;-83
2022/03/18 11:15:03;;;;;;;5.13;4.53;;;21.80;32.70;;;;;;4960559;28;20542;-81
2022/03/18 11:17:29;;;;;;;4.40;4.17;;;21.80;32.80;;;;;;4968091;28;20527;-83
2022/03/18 11:19:59;;;;;;;5.30;4.80;;;22.20;33.00;;;;;;4966377;28;20562;-84
2022/03/18 11:22:31;;;;;;;4.37;4.00;;;24.20;34.80;;;;;;4967226;28;20440;-83
2022/03/18 11:24:59;;;;;;;9.73;5.00;;;22.20;33.50;;;;;;4988674;28;20789;-84
2022/03/18 11:27:25;;;;;;;5.00;4.50;;;21.20;33.00;;;;;;4973423;28;20601;-84
2022/03/18 11:30:30;;;;;;;4.50;4.20;;;21.50;33.20;;;;;;4989426;28;20436;-84
2022/03/18 11:33:21;;;;;;;5.97;5.50;;;21.70;32.30;;;;;;4981398;28;20268;-84
2022/03/18 11:35:49;;;;;;;5.40;4.90;;;21.60;32.40;;;;;;4625764;28;10000256;-83
2022/03/18 11:38:22;;;;;;;4.30;4.00;;;21.40;33.10;;;;;;4985644;28;20181;-84
2022/03/18 11:41:07;;;;;;;6.77;5.97;;;23.30;32.80;;;;;;4964796;28;20441;-83
2022/03/18 11:43:35;;;;;;;5.90;5.40;;;21.40;32.10;;;;;;4965420;28;20505;-84
2022/03/18 11:46:13;;;;;;;5.30;4.90;;;22.00;32.60;;;;;;4964780;28;20424;-84
2022/03/18 11:48:49;;;;;;;6.07;5.77;;;22.80;32.40;;;;;;4986624;28;21184;-83
2022/03/18 11:51:33;;;;;;;4.87;4.50;;;24.00;32.70;;;;;;4989226;28;20910;-85
2022/03/18 11:54:34;;;;;;;5.80;5.27;;;24.20;32.10;;;;;;4970903;28;20786;-83
2022/03/18 11:57:33;;;;;;;5.23;4.93;;;24.60;32.80;;;;;;4971435;28;20952;-84
2022/03/18 12:00:00;;;;;;;5.23;4.90;;;24.30;31.60;;;;;;4999367;23;21020;-89
2022/03/18 12:02:54;;;;;;;5.50;4.97;;;24.00;31.10;;;;;;4990230;28;20432;-87
2022/03/18 12:05:45;;;;;;;5.83;5.33;;;23.50;31.30;;;;;;4992000;28;20482;-90
2022/03/18 12:08:17;;;;;;;4.80;4.60;;;21.10;31.10;;;;;;5008712;28;20499;-90
2022/03/18 12:10:44;;;;;;;5.27;4.83;;;22.00;33.10;;;;;;4993608;28;20482;-89
2022/03/18 12:13:09;;;;;;;4.70;4.50;;;21.90;31.90;;;;;;4984083;28;20189;-91
2022/03/18 12:16:14;;;;;;;;;;;;;;;;;;;;;
2022/03/18 12:18:50;;;;;;;3.90;3.80;;;21.30;32.00;;;;;;5006712;28;20253;-90
2022/03/18 12:21:32;;;;;;;4.20;3.90;;;22.00;31.90;;;;;;4989345;28;20448;-92
2022/03/18 12:24:39;;;;;;;4.50;3.80;;;21.90;30.90;;;;;;5007264;28;20503;-92
2022/03/18 12:27:36;;;;;;;5.10;4.60;;;21.80;31.20;;;;;;4994710;28;20558;-90
2022/03/18 12:30:26;;;;;;;4.80;4.40;;;21.70;31.20;;;;;;5013819;28;20539;-94
2022/03/18 12:32:59;;;;;;;4.60;4.30;;;23.30;32.30;;;;;;4996370;28;20401;-91
2022/03/18 12:35:29;;;;;;;5.20;4.70;;;21.40;32.00;;;;;;5012770;28;20452;-91
2022/03/18 12:38:24;;;;;;;4.70;4.33;;;23.50;32.70;;;;;;5014692;28;20467;-90
2022/03/18 12:40:58;;;;;;;5.17;4.93;;;21.90;31.20;;;;;;4990225;28;20424;-90
2022/03/18 12:43:31;;;;;;;4.80;4.50;;;21.80;31.30;;;;;;4990064;28;20913;-89
2022/03/18 12:46:40;;;;;;;4.73;4.47;;;22.10;31.80;;;;;;4986183;28;20445;-91
2022/03/18 14:41:01;;;;;;;4.97;4.57;;;20.60;30.50;;;;;;5024508;28;20619;-85
2022/03/18 14:44:01;;;;;;;5.80;5.40;;;18.90;33.40;;;;;;5005724;28;20771;-87
2022/03/18 14:46:58;;;;;;;6.50;5.00;;;19.30;32.90;;;;;;5009059;28;20432;-86
2022/03/18 14:49:27;;;;;;;4.87;4.57;;;21.20;33.90;;;;;;4995619;28;20423;-84
2022/03/18 14:51:53;;;;;;;5.83;5.30;;;21.00;33.10;;;;;;5012301;28;20419;-83
2022/03/18 14:56:17;;;;;;;5.33;4.83;;;20.20;32.50;;;;;;4665300;28;10000232;-86
2022/03/18 14:57:10;;;;;;;4.73;4.53;;;20.20;33.30;;;;;;5008053;28;20291;-85
2022/03/18 14:59:39;;;;;;;5.83;5.50;;;19.90;33.00;;;;;;5019804;28;20446;-84
2022/03/18 15:02:20;;;;;;;5.93;5.43;;;19.80;34.30;;;;;;4990209;28;20822;-87
2022/03/18 15:04:59;;;;;;;6.70;6.10;;;19.60;34.50;;;;;;4999785;28;20445;-86
2022/03/18 15:08:03;;;;;;;5.53;5.10;;;19.90;35.60;;;;;;4992242;28;20879;-85
2022/03/18 15:10:38;;;;;;;6.80;6.30;;;20.20;34.60;;;;;;5010000;28;20830;-87
2022/03/18 15:13:15;;;;;;;6.40;5.97;;;19.30;34.70;;;;;;4998322;28;20967;-88
2022/03/18 15:15:47;;;;;;;6.50;6.00;;;18.50;36.10;;;;;;5026274;28;20438;-84
2022/03/18 15:18:23;;;;;;;;;;;;;;;;;;;;;
2022/03/18 15:21:01;;;;;;;6.57;6.03;;;17.70;37.70;;;;;;4995566;28;20511;-87
2022/03/18 15:24:28;;;;;;;7.17;6.67;;;17.40;37.50;;;;;;5007027;28;20502;-86
2022/03/18 15:27:01;;;;;;;10.90;6.03;;;16.70;36.70;;;;;;4990696;28;20421;-87
2022/03/18 15:30:19;;;;;;;6.50;5.90;;;17.20;38.40;;;;;;5001582;28;20501;-87
2022/03/18 15:32:55;;;;;;;6.80;5.23;;;17.30;39.00;;;;;;4983155;28;20439;-84
2022/03/18 15:35:58;;;;;;;6.90;6.40;;;16.70;38.80;;;;;;4995475;28;20508;-86
2022/03/18 15:38:27;;;;;;;7.73;6.70;;;16.70;39.90;;;;;;4993018;28;21203;-88
2022/03/18 15:40:58;;;;;;;4.80;4.60;;;17.90;42.10;;;;;;5018138;28;20460;-89
2022/03/18 15:44:10;;;;;;;5.60;4.80;;;17.40;42.00;;;;;;4994428;28;20454;-88
2022/03/18 15:46:44;;;;;;;6.50;5.40;;;16.20;40.40;;;;;;4987506;28;20456;-86
2022/03/18 15:49:13;;;;;;;5.27;4.70;;;17.80;41.40;;;;;;4999678;28;20462;-85
2022/03/18 15:51:43;;;;;;;5.77;5.37;;;17.20;41.10;;;;;;4977146;28;20468;-85
2022/03/18 15:54:11;;;;;;;5.00;4.60;;;15.80;40.90;;;;;;4995349;28;20610;-84
2022/03/18 15:56:38;;;;;;;6.00;5.60;;;17.30;41.70;;;;;;4992100;28;20940;-85
2022/03/18 15:59:11;;;;;;;5.47;5.13;;;16.00;40.40;;;;;;4989039;28;20440;-85
2022/03/18 16:01:37;;;;;;;8.67;4.73;;;16.20;41.50;;;;;;4988465;28;20470;-86
2022/03/18 16:04:05;;;;;;;5.67;5.30;;;15.90;41.30;;;;;;4990652;28;20574;-86
2022/03/18 16:06:31;;;;;;;5.47;4.97;;;15.90;40.70;;;;;;4987068;28;20440;-85
2022/03/18 16:09:10;;;;;;;6.27;4.87;;;16.90;41.50;;;;;;4981032;28;21238;-85